createdAt,value
2023-07-09T00:00:05.610Z,101195.22
2023-07-09T00:05:17.997Z,101200.16
2023-07-09T00:10:25.045Z,101201.22
2023-07-09T00:15:27.818Z,101202.91
2023-07-09T00:20:30.193Z,101203.97
2023-07-09T00:25:32.796Z,101198.25
2023-07-09T00:30:35.120Z,101205.63
2023-07-09T00:35:37.776Z,101191.09
2023-07-09T00:40:40.224Z,101196.56
2023-07-09T00:45:42.677Z,101201.22
2023-07-09T00:50:54.972Z,101194.94
2023-07-09T00:56:02.324Z,101143.53
2023-07-09T01:01:10.083Z,101199.59
2023-07-09T01:06:13.564Z,101194.94
2023-07-09T01:11:22.709Z,101192.78
2023-07-09T01:16:31.229Z,101202.00
2023-07-09T01:21:33.845Z,101204.72
2023-07-09T01:26:36.272Z,101192.69
2023-07-09T01:31:38.732Z,101196.84
2023-07-09T01:36:41.191Z,101204.28
2023-07-09T01:41:43.641Z,101195.75
2023-07-09T01:46:48.747Z,101213.56
2023-07-09T01:51:53.020Z,101211.91
2023-07-09T01:57:02.692Z,101202.63
2023-07-09T02:02:07.917Z,101217.34
2023-07-09T02:07:10.351Z,101206.38
2023-07-09T02:12:13.972Z,101214.03
2023-07-09T02:17:16.897Z,101220.94
2023-07-09T02:22:20.713Z,101223.63
2023-07-09T02:27:23.463Z,101220.53
2023-07-09T02:32:27.814Z,101225.97
2023-07-09T02:37:30.347Z,101227.00
2023-07-09T02:42:33.128Z,101224.53
2023-07-09T02:47:35.625Z,101222.50
2023-07-09T02:52:38.970Z,101231.03
2023-07-09T02:57:41.415Z,101234.03
2023-07-09T03:02:43.883Z,101231.09
2023-07-09T03:07:46.282Z,101225.38
2023-07-09T03:12:48.666Z,101236.59
2023-07-09T03:17:51.513Z,101239.88
2023-07-09T03:22:54.957Z,101239.09
2023-07-09T03:27:57.280Z,101247.31
2023-07-09T03:32:59.824Z,101241.72
2023-07-09T03:38:02.439Z,101253.22
2023-07-09T03:43:09.281Z,101267.97
2023-07-09T03:48:11.804Z,101262.50
2023-07-09T03:53:15.099Z,101258.22
2023-07-09T03:58:17.756Z,101262.19
2023-07-09T04:03:20.153Z,101258.47
2023-07-09T04:08:22.685Z,101256.34
2023-07-09T04:13:25.183Z,101260.13
2023-07-09T04:18:27.729Z,101255.84
2023-07-09T04:23:30.159Z,101265.22
2023-07-09T04:28:33.108Z,101264.72
2023-07-09T04:33:37.260Z,101265.13
2023-07-09T04:38:39.601Z,101279.91
2023-07-09T04:43:42.090Z,101284.72
2023-07-09T04:48:44.586Z,101283.94
2023-07-09T04:53:47.026Z,101271.19
2023-07-09T04:58:50.576Z,101268.25
2023-07-09T05:03:53.179Z,101275.84
2023-07-09T05:08:55.659Z,101286.28
2023-07-09T05:13:58.236Z,101283.59
2023-07-09T05:19:00.600Z,101285.38
2023-07-09T05:24:03.030Z,101275.72
2023-07-09T05:29:09.436Z,101278.03
2023-07-09T05:34:11.950Z,101262.75
2023-07-09T05:39:14.296Z,101267.28
2023-07-09T05:44:16.785Z,101249.41
2023-07-09T05:49:19.697Z,101276.97
2023-07-09T05:54:22.659Z,101273.41
2023-07-09T05:59:25.019Z,101271.94
2023-07-09T06:04:27.802Z,101277.94
2023-07-09T06:09:30.342Z,101276.75
2023-07-09T06:14:33.315Z,101278.88
2023-07-09T06:19:35.780Z,101279.16
2023-07-09T06:24:38.216Z,101289.69
2023-07-09T06:29:40.685Z,101279.25
2023-07-09T06:34:43.079Z,101278.34
2023-07-09T06:39:45.733Z,101277.44
2023-07-09T06:44:48.550Z,101276.03
2023-07-09T06:49:50.847Z,101274.03
2023-07-09T06:54:53.335Z,101294.66
2023-07-09T06:59:55.871Z,101280.81
2023-07-09T07:04:58.366Z,101274.97
2023-07-09T07:10:00.870Z,101290.06
2023-07-09T07:15:03.351Z,101293.41
2023-07-09T07:20:06.790Z,101279.09
2023-07-09T07:25:09.778Z,101263.56
2023-07-09T07:30:12.514Z,101263.78
2023-07-09T07:35:15.312Z,101256.94
2023-07-09T07:40:17.797Z,101276.06
2023-07-09T07:45:21.295Z,101260.31
2023-07-09T07:50:23.770Z,101256.59
2023-07-09T07:55:26.505Z,101273.44
2023-07-09T08:00:29.024Z,101259.66
2023-07-09T08:05:31.768Z,101267.56
2023-07-09T08:10:34.152Z,101263.72
2023-07-09T08:15:36.855Z,101255.38
2023-07-09T08:20:39.829Z,101258.81
2023-07-09T08:25:42.523Z,101262.22
2023-07-09T08:30:44.950Z,101250.34
2023-07-09T08:35:47.387Z,101257.00
2023-07-09T08:40:52.641Z,101257.78
2023-07-09T08:46:12.042Z,101254.38
2023-07-09T08:51:32.463Z,101246.81
2023-07-09T08:56:35.297Z,101244.75
2023-07-09T09:01:41.610Z,101246.56
2023-07-09T09:06:47.498Z,101241.44
2023-07-09T09:11:52.692Z,101242.81
2023-07-09T09:16:55.741Z,101246.25
2023-07-09T09:22:06.031Z,101248.19
2023-07-09T09:27:09.989Z,101240.41
2023-07-09T09:32:33.137Z,101238.38
2023-07-09T09:37:36.191Z,101239.59
2023-07-09T09:42:38.523Z,101232.00
2023-07-09T09:47:41.063Z,101237.91
2023-07-09T09:52:45.127Z,101244.81
2023-07-09T09:57:51.964Z,101237.94
2023-07-09T10:03:02.520Z,101244.59
2023-07-09T10:08:13.888Z,101240.13
2023-07-09T10:13:32.039Z,101233.69
2023-07-09T10:18:48.279Z,101232.06
2023-07-09T10:24:01.055Z,101239.88
2023-07-09T10:29:26.428Z,101215.88
2023-07-09T10:34:39.474Z,101208.69
2023-07-09T10:39:54.164Z,101213.50
2023-07-09T10:45:03.409Z,101204.44
2023-07-09T10:50:07.893Z,101200.16
2023-07-09T10:56:07.424Z,101210.34
2023-07-09T11:01:13.824Z,101207.44
2023-07-09T11:06:23.301Z,101218.31
2023-07-09T11:11:57.914Z,101213.25
2023-07-09T11:17:01.972Z,101206.94
2023-07-09T11:22:18.764Z,101207.78
2023-07-09T11:27:26.928Z,101225.59
2023-07-09T11:32:30.116Z,101223.22
2023-07-09T11:37:32.553Z,101222.56
2023-07-09T11:42:36.792Z,101206.38
2023-07-09T11:47:43.206Z,101215.59
2023-07-09T11:52:51.413Z,101205.16
2023-07-09T11:57:58.331Z,101198.56
2023-07-09T12:03:01.742Z,101198.91
2023-07-09T12:08:04.375Z,101203.25
2023-07-09T12:13:06.954Z,101205.88
2023-07-09T12:18:15.509Z,101205.00
2023-07-09T12:23:29.015Z,101198.31
2023-07-09T12:28:32.296Z,101194.38
2023-07-09T12:33:34.890Z,101195.22
2023-07-09T12:38:44.351Z,101191.47
2023-07-09T12:43:46.912Z,101182.25
2023-07-09T12:48:51.699Z,101184.03
2023-07-09T12:54:20.218Z,101166.91
2023-07-09T12:59:27.820Z,101165.22
2023-07-09T13:04:40.260Z,101175.56
2023-07-09T13:09:50.185Z,101166.88
2023-07-09T13:14:58.647Z,101167.72
2023-07-09T13:20:03.164Z,101157.53
2023-07-09T13:25:07.235Z,101154.38
2023-07-09T13:30:10.413Z,101151.59
2023-07-09T13:35:20.598Z,101145.56
2023-07-09T13:40:23.134Z,101143.53
2023-07-09T13:45:27.616Z,101146.19
2023-07-09T13:50:30.015Z,101146.66
2023-07-09T13:55:32.396Z,101133.47
2023-07-09T14:00:34.955Z,101133.50
2023-07-09T14:05:37.559Z,101138.38
2023-07-09T14:10:40.335Z,101133.84
2023-07-09T14:15:43.190Z,101132.66
2023-07-09T14:20:45.841Z,101135.53
2023-07-09T14:25:48.813Z,101127.81
2023-07-09T14:30:52.181Z,101128.19
2023-07-09T14:35:54.973Z,101123.38
2023-07-09T14:41:01.421Z,101130.25
2023-07-09T14:46:03.900Z,101120.72
2023-07-09T14:51:16.048Z,101113.47
2023-07-09T14:56:18.498Z,101102.56
2023-07-09T15:01:22.223Z,101112.16
2023-07-09T15:06:24.644Z,101109.28
2023-07-09T15:11:26.999Z,101103.81
2023-07-09T15:16:29.655Z,101096.97
2023-07-09T15:21:32.512Z,101100.81
2023-07-09T15:26:34.938Z,101100.16
2023-07-09T15:31:37.574Z,101102.28
2023-07-09T15:36:40.435Z,101097.63
2023-07-09T15:41:42.983Z,101093.41
2023-07-09T15:46:55.428Z,101085.63
2023-07-09T15:51:58.774Z,101084.22
2023-07-09T15:57:02.597Z,101087.47
2023-07-09T16:02:13.697Z,101079.09
2023-07-09T16:07:19.042Z,101088.00
2023-07-09T16:12:21.557Z,101080.34
2023-07-09T16:17:24.342Z,101068.25
2023-07-09T16:22:26.909Z,101069.28
2023-07-09T16:27:29.381Z,101075.06
2023-07-09T16:32:32.137Z,101073.41
2023-07-09T16:37:34.649Z,101072.16
2023-07-09T16:42:37.079Z,101074.09
2023-07-09T16:47:39.607Z,101072.84
2023-07-09T16:52:42.072Z,101076.28
2023-07-09T16:57:44.701Z,101076.41
2023-07-09T17:02:47.249Z,101073.75
2023-07-09T17:07:49.891Z,101067.66
2023-07-09T17:12:56.950Z,101081.28
2023-07-09T17:18:00.237Z,101074.22
2023-07-09T17:23:02.703Z,101076.91
2023-07-09T17:28:26.007Z,101088.84
2023-07-09T17:33:28.459Z,101090.13
2023-07-09T17:38:36.098Z,101093.69
2023-07-09T17:43:39.296Z,101091.47
2023-07-09T17:48:42.680Z,101094.41
2023-07-09T17:53:45.070Z,101093.03
2023-07-09T17:58:49.132Z,101087.38
2023-07-09T18:03:51.614Z,101079.44
2023-07-09T18:08:54.142Z,101077.88
2023-07-09T18:13:56.647Z,101078.47
2023-07-09T18:19:03.654Z,101077.97
2023-07-09T18:24:06.384Z,101076.50
2023-07-09T18:29:15.625Z,101073.31
2023-07-09T18:34:18.095Z,101076.47
2023-07-09T18:39:21.710Z,101077.25
2023-07-09T18:44:26.749Z,101072.47
2023-07-09T18:49:29.256Z,101070.63
2023-07-09T18:54:31.639Z,101082.97
2023-07-09T18:59:35.450Z,101082.44
2023-07-09T19:04:37.958Z,101082.59
2023-07-09T19:09:40.380Z,101084.59
2023-07-09T19:14:43.124Z,101076.84
2023-07-09T19:19:47.300Z,101072.56
2023-07-09T19:24:50.093Z,101077.41
2023-07-09T19:29:52.599Z,101096.13
2023-07-09T19:34:55.930Z,101089.59
2023-07-09T19:39:58.489Z,101099.00
2023-07-09T19:45:01.119Z,101094.19
2023-07-09T19:50:10.788Z,101095.19
2023-07-09T19:55:22.665Z,101093.69
2023-07-09T20:00:25.243Z,101100.09
2023-07-09T20:05:30.958Z,101110.38
2023-07-09T20:10:35.092Z,101110.91
2023-07-09T20:15:37.654Z,101108.44
2023-07-09T20:20:40.062Z,101114.78
2023-07-09T20:25:42.908Z,101114.81
2023-07-09T20:30:46.827Z,101107.16
2023-07-09T20:35:50.956Z,101126.13
2023-07-09T20:40:54.060Z,101130.50
2023-07-09T20:45:56.796Z,101133.03
2023-07-09T20:50:59.268Z,101127.13
2023-07-09T20:56:02.065Z,101130.38
2023-07-09T21:01:05.064Z,101141.66
2023-07-09T21:06:15.569Z,101134.13
2023-07-09T21:11:17.944Z,101144.88
2023-07-09T21:16:21.612Z,101150.03
2023-07-09T21:21:24.372Z,101145.88
2023-07-09T21:26:27.788Z,101146.72
2023-07-09T21:31:32.240Z,101154.88
2023-07-09T21:36:34.919Z,101145.91
2023-07-09T21:41:37.535Z,101149.13
2023-07-09T21:46:40.575Z,101143.56
2023-07-09T21:51:46.493Z,101151.13
2023-07-09T21:56:49.688Z,101148.91
2023-07-09T22:01:55.230Z,101164.91
2023-07-09T22:06:57.916Z,101169.22
2023-07-09T22:12:02.437Z,101176.25
2023-07-09T22:17:06.190Z,101166.31
2023-07-09T22:22:11.613Z,101176.75
2023-07-09T22:27:14.005Z,101158.84
2023-07-09T22:32:19.484Z,101161.88
2023-07-09T22:37:21.886Z,101161.25
2023-07-09T22:42:24.877Z,101144.69
2023-07-09T22:47:29.542Z,101140.75
2023-07-09T22:52:32.090Z,101130.00
2023-07-09T22:57:36.647Z,101126.53
2023-07-09T23:02:39.797Z,101130.31
2023-07-09T23:07:42.453Z,101130.44
2023-07-09T23:12:45.025Z,101128.59
2023-07-09T23:17:47.460Z,101129.09
2023-07-09T23:22:54.399Z,101127.97
2023-07-09T23:27:57.622Z,101126.38
2023-07-09T23:33:00.114Z,101121.31
2023-07-09T23:38:04.810Z,101118.38
2023-07-09T23:43:10.810Z,101121.66
2023-07-09T23:48:27.540Z,101120.38
2023-07-09T23:53:34.621Z,101104.13
2023-07-09T23:58:38.652Z,101106.47
